sensor_id;sensor_type;location;lat;lon;timestamp;P1;durP1;ratioP1;P2;durP2;ratioP2
50585;SDS011;36542;51.700;8.846;2023-11-19T00:00:33;2.27;;;1.97;;
50585;SDS011;36542;51.700;8.846;2023-11-19T00:05:45;2.17;;;1.60;;
50585;SDS011;36542;51.700;8.846;2023-11-19T00:08:20;1.93;;;1.70;;
50585;SDS011;36542;51.700;8.846;2023-11-19T00:10:45;4.43;;;2.10;;
50585;SDS011;36542;51.700;8.846;2023-11-19T00:13:20;2.93;;;2.40;;
50585;SDS011;36542;51.700;8.846;2023-11-19T00:15:46;5.43;;;2.57;;
50585;SDS011;36542;51.700;8.846;2023-11-19T00:27:34;3.17;;;1.90;;
50585;SDS011;36542;51.700;8.846;2023-11-19T00:30:08;3.13;;;2.20;;
50585;SDS011;36542;51.700;8.846;2023-11-19T00:35:25;3.37;;;2.10;;
50585;SDS011;36542;51.700;8.846;2023-11-19T00:37:57;2.00;;;1.90;;
50585;SDS011;36542;51.700;8.846;2023-11-19T00:40:31;2.50;;;1.97;;
50585;SDS011;36542;51.700;8.846;2023-11-19T00:43:20;2.00;;;1.70;;
50585;SDS011;36542;51.700;8.846;2023-11-19T00:45:55;1.70;;;1.60;;
50585;SDS011;36542;51.700;8.846;2023-11-19T00:48:21;1.80;;;1.70;;
50585;SDS011;36542;51.700;8.846;2023-11-19T00:50:46;1.33;;;1.23;;
50585;SDS011;36542;51.700;8.846;2023-11-19T01:02:21;3.63;;;1.60;;
50585;SDS011;36542;51.700;8.846;2023-11-19T01:08:10;2.40;;;1.70;;
50585;SDS011;36542;51.700;8.846;2023-11-19T01:10:45;3.97;;;2.00;;
50585;SDS011;36542;51.700;8.846;2023-11-19T01:13:10;1.27;;;1.17;;
50585;SDS011;36542;51.700;8.846;2023-11-19T01:15:56;1.57;;;1.37;;
50585;SDS011;36542;51.700;8.846;2023-11-19T01:18:22;1.30;;;1.10;;
50585;SDS011;36542;51.700;8.846;2023-11-19T01:20:47;5.17;;;2.23;;
50585;SDS011;36542;51.700;8.846;2023-11-19T01:30:06;1.40;;;1.30;;
50585;SDS011;36542;51.700;8.846;2023-11-19T01:32:43;1.93;;;1.00;;
50585;SDS011;36542;51.700;8.846;2023-11-19T01:35:09;1.43;;;1.10;;
50585;SDS011;36542;51.700;8.846;2023-11-19T01:37:48;1.17;;;1.07;;
50585;SDS011;36542;51.700;8.846;2023-11-19T01:40:13;1.27;;;1.17;;
50585;SDS011;36542;51.700;8.846;2023-11-19T01:42:58;1.30;;;1.20;;
50585;SDS011;36542;51.700;8.846;2023-11-19T01:45:30;1.40;;;1.30;;
50585;SDS011;36542;51.700;8.846;2023-11-19T01:47:57;3.10;;;1.70;;
50585;SDS011;36542;51.700;8.846;2023-11-19T01:50:44;2.70;;;1.30;;
50585;SDS011;36542;51.700;8.846;2023-11-19T01:53:31;2.87;;;1.60;;
50585;SDS011;36542;51.700;8.846;2023-11-19T01:55:57;1.33;;;1.23;;
50585;SDS011;36542;51.700;8.846;2023-11-19T01:58:43;3.47;;;1.63;;
50585;SDS011;36542;51.700;8.846;2023-11-19T02:01:36;1.40;;;1.30;;
50585;SDS011;36542;51.700;8.846;2023-11-19T02:04:08;3.57;;;1.73;;
50585;SDS011;36542;51.700;8.846;2023-11-19T02:06:57;1.90;;;1.80;;
50585;SDS011;36542;51.700;8.846;2023-11-19T02:09:43;1.83;;;1.70;;
50585;SDS011;36542;51.700;8.846;2023-11-19T02:12:09;1.57;;;1.40;;
50585;SDS011;36542;51.700;8.846;2023-11-19T02:14:45;4.80;;;1.80;;
50585;SDS011;36542;51.700;8.846;2023-11-19T02:20:03;2.33;;;1.70;;
50585;SDS011;36542;51.700;8.846;2023-11-19T02:29:09;3.83;;;2.47;;
50585;SDS011;36542;51.700;8.846;2023-11-19T02:34:55;3.27;;;2.57;;
50585;SDS011;36542;51.700;8.846;2023-11-19T02:37:23;4.63;;;3.07;;
50585;SDS011;36542;51.700;8.846;2023-11-19T02:48:43;6.80;;;3.70;;
50585;SDS011;36542;51.700;8.846;2023-11-19T02:55:00;3.83;;;3.33;;
50585;SDS011;36542;51.700;8.846;2023-11-19T02:57:31;4.20;;;3.80;;
50585;SDS011;36542;51.700;8.846;2023-11-19T02:59:57;5.57;;;3.87;;
50585;SDS011;36542;51.700;8.846;2023-11-19T03:02:55;4.07;;;3.10;;
50585;SDS011;36542;51.700;8.846;2023-11-19T03:05:44;3.83;;;3.30;;
50585;SDS011;36542;51.700;8.846;2023-11-19T03:08:19;4.10;;;2.60;;
50585;SDS011;36542;51.700;8.846;2023-11-19T03:14:16;3.50;;;2.90;;
50585;SDS011;36542;51.700;8.846;2023-11-19T03:16:44;4.57;;;3.30;;
50585;SDS011;36542;51.700;8.846;2023-11-19T03:20:12;5.37;;;3.30;;
50585;SDS011;36542;51.700;8.846;2023-11-19T03:22:45;4.07;;;3.13;;
50585;SDS011;36542;51.700;8.846;2023-11-19T03:28:09;4.73;;;3.60;;
50585;SDS011;36542;51.700;8.846;2023-11-19T03:30:45;4.07;;;3.10;;
50585;SDS011;36542;51.700;8.846;2023-11-19T03:33:19;4.23;;;3.70;;
50585;SDS011;36542;51.700;8.846;2023-11-19T03:35:45;8.20;;;4.23;;
50585;SDS011;36542;51.700;8.846;2023-11-19T03:38:11;3.83;;;3.43;;
50585;SDS011;36542;51.700;8.846;2023-11-19T03:46:43;6.57;;;3.77;;
50585;SDS011;36542;51.700;8.846;2023-11-19T03:49:21;5.30;;;3.30;;
50585;SDS011;36542;51.700;8.846;2023-11-19T03:51:46;5.13;;;4.03;;
50585;SDS011;36542;51.700;8.846;2023-11-19T03:54:22;8.80;;;3.77;;
50585;SDS011;36542;51.700;8.846;2023-11-19T04:03:08;5.30;;;3.53;;
50585;SDS011;36542;51.700;8.846;2023-11-19T04:05:33;8.07;;;3.80;;
50585;SDS011;36542;51.700;8.846;2023-11-19T04:14:20;11.60;;;4.53;;
50585;SDS011;36542;51.700;8.846;2023-11-19T04:16:46;9.77;;;4.43;;
50585;SDS011;36542;51.700;8.846;2023-11-19T04:19:34;10.47;;;4.80;;
50585;SDS011;36542;51.700;8.846;2023-11-19T04:22:26;10.20;;;5.73;;
50585;SDS011;36542;51.700;8.846;2023-11-19T04:25:56;8.67;;;4.40;;
50585;SDS011;36542;51.700;8.846;2023-11-19T04:31:45;9.30;;;4.47;;
50585;SDS011;36542;51.700;8.846;2023-11-19T04:34:20;12.93;;;4.63;;
50585;SDS011;36542;51.700;8.846;2023-11-19T04:36:45;11.53;;;3.87;;
50585;SDS011;36542;51.700;8.846;2023-11-19T04:39:13;10.63;;;4.23;;
50585;SDS011;36542;51.700;8.846;2023-11-19T04:41:50;11.80;;;5.07;;
50585;SDS011;36542;51.700;8.846;2023-11-19T04:47:40;10.33;;;4.53;;
50585;SDS011;36542;51.700;8.846;2023-11-19T04:50:09;8.90;;;5.07;;
50585;SDS011;36542;51.700;8.846;2023-11-19T04:52:46;8.73;;;4.43;;
50585;SDS011;36542;51.700;8.846;2023-11-19T05:00:53;7.93;;;4.23;;
50585;SDS011;36542;51.700;8.846;2023-11-19T05:03:24;11.10;;;4.73;;
50585;SDS011;36542;51.700;8.846;2023-11-19T05:05:55;11.47;;;4.27;;
50585;SDS011;36542;51.700;8.846;2023-11-19T05:08:21;14.03;;;5.57;;
50585;SDS011;36542;51.700;8.846;2023-11-19T05:14:46;13.23;;;5.03;;
50585;SDS011;36542;51.700;8.846;2023-11-19T05:17:15;11.93;;;4.47;;
50585;SDS011;36542;51.700;8.846;2023-11-19T05:19:45;13.90;;;4.77;;
50585;SDS011;36542;51.700;8.846;2023-11-19T05:29:00;14.33;;;4.23;;
50585;SDS011;36542;51.700;8.846;2023-11-19T05:31:33;12.87;;;3.70;;
50585;SDS011;36542;51.700;8.846;2023-11-19T05:34:01;12.93;;;5.03;;
50585;SDS011;36542;51.700;8.846;2023-11-19T05:36:34;9.73;;;4.37;;
50585;SDS011;36542;51.700;8.846;2023-11-19T05:39:25;20.73;;;4.97;;
50585;SDS011;36542;51.700;8.846;2023-11-19T05:41:59;13.17;;;4.47;;
50585;SDS011;36542;51.700;8.846;2023-11-19T05:44:57;13.50;;;4.90;;
50585;SDS011;36542;51.700;8.846;2023-11-19T05:47:25;15.23;;;5.00;;
50585;SDS011;36542;51.700;8.846;2023-11-19T05:50:17;18.57;;;4.50;;
50585;SDS011;36542;51.700;8.846;2023-11-19T05:52:45;16.40;;;4.80;;
50585;SDS011;36542;51.700;8.846;2023-11-19T05:55:22;21.23;;;4.83;;
50585;SDS011;36542;51.700;8.846;2023-11-19T06:01:19;24.77;;;5.67;;
50585;SDS011;36542;51.700;8.846;2023-11-19T06:03:44;12.07;;;4.40;;
50585;SDS011;36542;51.700;8.846;2023-11-19T06:06:20;16.93;;;5.40;;
50585;SDS011;36542;51.700;8.846;2023-11-19T06:11:34;19.03;;;5.17;;
50585;SDS011;36542;51.700;8.846;2023-11-19T06:14:20;14.87;;;4.70;;
50585;SDS011;36542;51.700;8.846;2023-11-19T06:16:46;14.73;;;4.40;;
50585;SDS011;36542;51.700;8.846;2023-11-19T06:19:11;17.10;;;4.50;;
50585;SDS011;36542;51.700;8.846;2023-11-19T06:25:01;20.10;;;4.87;;
50585;SDS011;36542;51.700;8.846;2023-11-19T06:27:37;17.50;;;4.97;;
50585;SDS011;36542;51.700;8.846;2023-11-19T06:33:56;20.30;;;5.03;;
50585;SDS011;36542;51.700;8.846;2023-11-19T06:39:54;13.60;;;4.93;;
50585;SDS011;36542;51.700;8.846;2023-11-19T06:45:13;21.17;;;4.73;;
50585;SDS011;36542;51.700;8.846;2023-11-19T06:48:19;18.40;;;4.07;;
50585;SDS011;36542;51.700;8.846;2023-11-19T06:51:09;18.33;;;6.17;;
50585;SDS011;36542;51.700;8.846;2023-11-19T06:53:35;22.20;;;4.90;;
50585;SDS011;36542;51.700;8.846;2023-11-19T06:59:22;31.50;;;6.27;;
50585;SDS011;36542;51.700;8.846;2023-11-19T07:02:11;20.87;;;5.73;;
50585;SDS011;36542;51.700;8.846;2023-11-19T07:07:54;26.43;;;6.70;;
50585;SDS011;36542;51.700;8.846;2023-11-19T07:11:06;18.50;;;5.10;;
50585;SDS011;36542;51.700;8.846;2023-11-19T07:13:35;24.87;;;6.27;;
50585;SDS011;36542;51.700;8.846;2023-11-19T07:16:20;28.10;;;5.83;;
50585;SDS011;36542;51.700;8.846;2023-11-19T07:18:47;21.77;;;4.50;;
50585;SDS011;36542;51.700;8.846;2023-11-19T07:21:15;16.93;;;5.57;;
50585;SDS011;36542;51.700;8.846;2023-11-19T07:23:40;31.50;;;5.43;;
50585;SDS011;36542;51.700;8.846;2023-11-19T07:26:06;24.77;;;5.37;;
50585;SDS011;36542;51.700;8.846;2023-11-19T07:28:33;23.43;;;5.13;;
50585;SDS011;36542;51.700;8.846;2023-11-19T07:30:59;24.50;;;5.53;;
50585;SDS011;36542;51.700;8.846;2023-11-19T07:33:24;24.13;;;5.30;;
50585;SDS011;36542;51.700;8.846;2023-11-19T07:35:52;21.03;;;5.03;;
50585;SDS011;36542;51.700;8.846;2023-11-19T07:38:27;24.67;;;5.80;;
50585;SDS011;36542;51.700;8.846;2023-11-19T07:41:11;27.50;;;6.07;;
50585;SDS011;36542;51.700;8.846;2023-11-19T07:44:09;24.83;;;5.03;;
50585;SDS011;36542;51.700;8.846;2023-11-19T07:46:34;21.33;;;5.90;;
50585;SDS011;36542;51.700;8.846;2023-11-19T08:02:43;19.93;;;6.00;;
50585;SDS011;36542;51.700;8.846;2023-11-19T08:09:19;22.10;;;5.10;;
50585;SDS011;36542;51.700;8.846;2023-11-19T08:11:45;19.00;;;4.30;;
50585;SDS011;36542;51.700;8.846;2023-11-19T08:17:31;16.83;;;5.03;;
50585;SDS011;36542;51.700;8.846;2023-11-19T08:28:47;15.63;;;5.03;;
50585;SDS011;36542;51.700;8.846;2023-11-19T08:31:18;27.00;;;5.87;;
50585;SDS011;36542;51.700;8.846;2023-11-19T08:33:58;22.47;;;4.80;;
50585;SDS011;36542;51.700;8.846;2023-11-19T08:36:33;18.73;;;4.63;;
50585;SDS011;36542;51.700;8.846;2023-11-19T08:39:07;20.53;;;5.37;;
50585;SDS011;36542;51.700;8.846;2023-11-19T08:44:20;24.23;;;5.17;;
50585;SDS011;36542;51.700;8.846;2023-11-19T08:46:49;17.23;;;4.90;;
50585;SDS011;36542;51.700;8.846;2023-11-19T08:49:20;24.33;;;4.80;;
50585;SDS011;36542;51.700;8.846;2023-11-19T08:51:46;19.50;;;4.37;;
50585;SDS011;36542;51.700;8.846;2023-11-19T08:54:11;17.47;;;5.10;;
50585;SDS011;36542;51.700;8.846;2023-11-19T08:56:38;23.93;;;5.90;;
50585;SDS011;36542;51.700;8.846;2023-11-19T08:59:27;15.77;;;4.90;;
50585;SDS011;36542;51.700;8.846;2023-11-19T09:01:54;17.23;;;4.70;;
50585;SDS011;36542;51.700;8.846;2023-11-19T09:04:22;21.17;;;5.53;;
50585;SDS011;36542;51.700;8.846;2023-11-19T09:06:58;20.57;;;4.60;;
50585;SDS011;36542;51.700;8.846;2023-11-19T09:10:10;15.87;;;4.67;;
50585;SDS011;36542;51.700;8.846;2023-11-19T09:12:44;16.10;;;4.57;;
50585;SDS011;36542;51.700;8.846;2023-11-19T09:18:47;16.97;;;4.63;;
50585;SDS011;36542;51.700;8.846;2023-11-19T09:22:08;16.23;;;4.73;;
50585;SDS011;36542;51.700;8.846;2023-11-19T09:24:33;15.87;;;4.67;;
50585;SDS011;36542;51.700;8.846;2023-11-19T09:33:48;18.47;;;5.20;;
50585;SDS011;36542;51.700;8.846;2023-11-19T09:36:57;23.53;;;5.57;;
50585;SDS011;36542;51.700;8.846;2023-11-19T09:39:22;18.50;;;4.40;;
50585;SDS011;36542;51.700;8.846;2023-11-19T09:41:50;17.40;;;5.20;;
50585;SDS011;36542;51.700;8.846;2023-11-19T09:44:17;23.13;;;4.70;;
50585;SDS011;36542;51.700;8.846;2023-11-19T09:46:47;19.77;;;5.20;;
50585;SDS011;36542;51.700;8.846;2023-11-19T09:49:14;16.30;;;4.87;;
50585;SDS011;36542;51.700;8.846;2023-11-19T09:51:41;26.33;;;5.33;;
50585;SDS011;36542;51.700;8.846;2023-11-19T09:54:09;22.27;;;4.77;;
50585;SDS011;36542;51.700;8.846;2023-11-19T09:56:35;21.07;;;5.07;;
50585;SDS011;36542;51.700;8.846;2023-11-19T09:59:02;21.63;;;4.73;;
50585;SDS011;36542;51.700;8.846;2023-11-19T10:01:28;23.27;;;4.97;;
50585;SDS011;36542;51.700;8.846;2023-11-19T10:03:56;30.17;;;6.27;;
50585;SDS011;36542;51.700;8.846;2023-11-19T10:06:25;24.07;;;5.20;;
50585;SDS011;36542;51.700;8.846;2023-11-19T10:08:57;23.03;;;4.70;;
50585;SDS011;36542;51.700;8.846;2023-11-19T10:14:34;19.10;;;4.73;;
50585;SDS011;36542;51.700;8.846;2023-11-19T10:17:36;28.90;;;4.90;;
50585;SDS011;36542;51.700;8.846;2023-11-19T10:20:01;25.67;;;5.80;;
50585;SDS011;36542;51.700;8.846;2023-11-19T10:25:57;17.27;;;4.77;;
50585;SDS011;36542;51.700;8.846;2023-11-19T10:28:48;22.40;;;4.87;;
50585;SDS011;36542;51.700;8.846;2023-11-19T10:31:57;18.70;;;4.80;;
50585;SDS011;36542;51.700;8.846;2023-11-19T10:37:49;15.07;;;4.13;;
50585;SDS011;36542;51.700;8.846;2023-11-19T10:40:33;28.10;;;4.73;;
50585;SDS011;36542;51.700;8.846;2023-11-19T10:43:45;16.53;;;4.30;;
50585;SDS011;36542;51.700;8.846;2023-11-19T10:46:13;14.73;;;4.00;;
50585;SDS011;36542;51.700;8.846;2023-11-19T10:54:15;20.70;;;4.27;;
50585;SDS011;36542;51.700;8.846;2023-11-19T10:57:24;19.23;;;4.63;;
50585;SDS011;36542;51.700;8.846;2023-11-19T11:00:00;19.93;;;5.03;;
50585;SDS011;36542;51.700;8.846;2023-11-19T11:02:45;19.80;;;5.23;;
50585;SDS011;36542;51.700;8.846;2023-11-19T11:05:21;22.57;;;4.53;;
50585;SDS011;36542;51.700;8.846;2023-11-19T11:11:24;25.43;;;5.43;;
50585;SDS011;36542;51.700;8.846;2023-11-19T11:13:54;20.77;;;5.00;;
50585;SDS011;36542;51.700;8.846;2023-11-19T11:16:44;17.70;;;4.73;;
50585;SDS011;36542;51.700;8.846;2023-11-19T11:23:02;18.87;;;4.57;;
50585;SDS011;36542;51.700;8.846;2023-11-19T11:31:15;15.00;;;5.57;;
50585;SDS011;36542;51.700;8.846;2023-11-19T11:44:34;19.87;;;5.77;;
50585;SDS011;36542;51.700;8.846;2023-11-19T11:50:12;21.43;;;5.37;;
50585;SDS011;36542;51.700;8.846;2023-11-19T11:58:30;17.50;;;4.47;;
50585;SDS011;36542;51.700;8.846;2023-11-19T12:01:00;19.13;;;4.20;;
50585;SDS011;36542;51.700;8.846;2023-11-19T12:03:51;20.27;;;5.17;;
50585;SDS011;36542;51.700;8.846;2023-11-19T12:06:33;21.47;;;4.57;;
50585;SDS011;36542;51.700;8.846;2023-11-19T12:09:20;28.63;;;5.83;;
50585;SDS011;36542;51.700;8.846;2023-11-19T12:12:07;25.43;;;5.70;;
50585;SDS011;36542;51.700;8.846;2023-11-19T12:17:58;32.70;;;5.87;;
50585;SDS011;36542;51.700;8.846;2023-11-19T12:23:43;19.40;;;5.80;;
50585;SDS011;36542;51.700;8.846;2023-11-19T12:27:00;20.53;;;4.97;;
50585;SDS011;36542;51.700;8.846;2023-11-19T12:33:22;24.67;;;5.07;;
50585;SDS011;36542;51.700;8.846;2023-11-19T12:39:08;20.70;;;5.47;;
50585;SDS011;36542;51.700;8.846;2023-11-19T12:41:58;22.47;;;5.17;;
50585;SDS011;36542;51.700;8.846;2023-11-19T12:44:56;29.40;;;4.90;;
50585;SDS011;36542;51.700;8.846;2023-11-19T12:47:33;24.23;;;6.10;;
50585;SDS011;36542;51.700;8.846;2023-11-19T12:50:57;25.67;;;4.43;;
50585;SDS011;36542;51.700;8.846;2023-11-19T12:53:46;16.63;;;4.23;;
50585;SDS011;36542;51.700;8.846;2023-11-19T12:57:11;23.23;;;4.90;;
50585;SDS011;36542;51.700;8.846;2023-11-19T13:06:26;17.33;;;4.23;;
50585;SDS011;36542;51.700;8.846;2023-11-19T13:09:35;20.30;;;5.40;;
50585;SDS011;36542;51.700;8.846;2023-11-19T13:12:11;26.00;;;5.17;;
50585;SDS011;36542;51.700;8.846;2023-11-19T13:15:35;20.83;;;4.00;;
50585;SDS011;36542;51.700;8.846;2023-11-19T13:21:07;17.13;;;3.67;;
50585;SDS011;36542;51.700;8.846;2023-11-19T13:23:33;19.17;;;4.60;;
50585;SDS011;36542;51.700;8.846;2023-11-19T13:26:19;15.17;;;3.63;;
50585;SDS011;36542;51.700;8.846;2023-11-19T13:29:06;18.33;;;3.97;;
50585;SDS011;36542;51.700;8.846;2023-11-19T13:31:33;22.67;;;5.43;;
50585;SDS011;36542;51.700;8.846;2023-11-19T13:34:17;22.80;;;6.47;;
50585;SDS011;36542;51.700;8.846;2023-11-19T13:36:45;21.60;;;4.73;;
50585;SDS011;36542;51.700;8.846;2023-11-19T13:39:10;24.67;;;5.20;;
50585;SDS011;36542;51.700;8.846;2023-11-19T13:41:39;20.20;;;4.83;;
50585;SDS011;36542;51.700;8.846;2023-11-19T13:44:08;15.67;;;4.43;;
50585;SDS011;36542;51.700;8.846;2023-11-19T13:46:34;15.93;;;3.87;;
50585;SDS011;36542;51.700;8.846;2023-11-19T13:49:00;15.03;;;3.10;;
50585;SDS011;36542;51.700;8.846;2023-11-19T13:51:28;16.33;;;3.80;;
50585;SDS011;36542;51.700;8.846;2023-11-19T13:53:56;22.90;;;4.30;;
50585;SDS011;36542;51.700;8.846;2023-11-19T13:56:21;17.47;;;4.50;;
50585;SDS011;36542;51.700;8.846;2023-11-19T13:58:47;17.73;;;3.77;;
50585;SDS011;36542;51.700;8.846;2023-11-19T14:01:18;16.53;;;3.73;;
50585;SDS011;36542;51.700;8.846;2023-11-19T14:06:43;14.97;;;4.77;;
50585;SDS011;36542;51.700;8.846;2023-11-19T14:09:10;22.87;;;5.00;;
50585;SDS011;36542;51.700;8.846;2023-11-19T14:11:37;16.03;;;5.50;;
50585;SDS011;36542;51.700;8.846;2023-11-19T14:14:25;19.67;;;5.40;;
50585;SDS011;36542;51.700;8.846;2023-11-19T14:17:16;19.17;;;5.63;;
50585;SDS011;36542;51.700;8.846;2023-11-19T14:19:43;14.97;;;4.57;;
50585;SDS011;36542;51.700;8.846;2023-11-19T14:25:36;19.07;;;6.50;;
50585;SDS011;36542;51.700;8.846;2023-11-19T14:28:19;21.60;;;7.07;;
50585;SDS011;36542;51.700;8.846;2023-11-19T14:30:45;13.87;;;4.63;;
50585;SDS011;36542;51.700;8.846;2023-11-19T14:33:20;20.63;;;5.30;;
50585;SDS011;36542;51.700;8.846;2023-11-19T14:38:38;15.43;;;3.13;;
50585;SDS011;36542;51.700;8.846;2023-11-19T14:44:42;16.53;;;3.20;;
50585;SDS011;36542;51.700;8.846;2023-11-19T14:50:24;12.40;;;3.40;;
50585;SDS011;36542;51.700;8.846;2023-11-19T14:53:00;15.87;;;3.30;;
50585;SDS011;36542;51.700;8.846;2023-11-19T14:58:20;20.60;;;4.90;;
50585;SDS011;36542;51.700;8.846;2023-11-19T15:01:13;16.10;;;5.17;;
50585;SDS011;36542;51.700;8.846;2023-11-19T15:07:18;18.93;;;5.53;;
50585;SDS011;36542;51.700;8.846;2023-11-19T15:12:43;17.13;;;4.37;;
50585;SDS011;36542;51.700;8.846;2023-11-19T15:15:31;15.73;;;3.53;;
50585;SDS011;36542;51.700;8.846;2023-11-19T15:17:58;24.43;;;5.37;;
50585;SDS011;36542;51.700;8.846;2023-11-19T15:26:36;18.90;;;3.50;;
50585;SDS011;36542;51.700;8.846;2023-11-19T15:29:08;14.50;;;4.07;;
50585;SDS011;36542;51.700;8.846;2023-11-19T15:31:34;14.00;;;3.57;;
50585;SDS011;36542;51.700;8.846;2023-11-19T15:34:02;16.77;;;4.53;;
50585;SDS011;36542;51.700;8.846;2023-11-19T15:36:33;15.70;;;3.20;;
50585;SDS011;36542;51.700;8.846;2023-11-19T15:39:03;15.27;;;3.50;;
50585;SDS011;36542;51.700;8.846;2023-11-19T15:47:44;11.20;;;3.60;;
50585;SDS011;36542;51.700;8.846;2023-11-19T15:52:56;11.70;;;3.33;;
50585;SDS011;36542;51.700;8.846;2023-11-19T15:55:21;14.53;;;3.23;;
50585;SDS011;36542;51.700;8.846;2023-11-19T15:57:47;20.17;;;3.50;;
50585;SDS011;36542;51.700;8.846;2023-11-19T16:16:35;11.77;;;3.83;;
50585;SDS011;36542;51.700;8.846;2023-11-19T16:19:10;14.00;;;3.83;;
50585;SDS011;36542;51.700;8.846;2023-11-19T16:21:35;15.10;;;4.03;;
50585;SDS011;36542;51.700;8.846;2023-11-19T16:24:10;14.57;;;4.50;;
50585;SDS011;36542;51.700;8.846;2023-11-19T16:26:36;18.87;;;3.60;;
50585;SDS011;36542;51.700;8.846;2023-11-19T16:29:04;14.60;;;3.67;;
50585;SDS011;36542;51.700;8.846;2023-11-19T16:31:30;13.43;;;3.33;;
50585;SDS011;36542;51.700;8.846;2023-11-19T16:34:00;15.53;;;3.27;;
50585;SDS011;36542;51.700;8.846;2023-11-19T16:37:00;14.40;;;3.10;;
50585;SDS011;36542;51.700;8.846;2023-11-19T16:39:48;13.90;;;3.67;;
50585;SDS011;36542;51.700;8.846;2023-11-19T16:42:19;13.60;;;3.43;;
50585;SDS011;36542;51.700;8.846;2023-11-19T16:44:45;15.33;;;3.47;;
50585;SDS011;36542;51.700;8.846;2023-11-19T16:47:11;14.73;;;3.33;;
50585;SDS011;36542;51.700;8.846;2023-11-19T16:49:54;7.50;;;2.60;;
50585;SDS011;36542;51.700;8.846;2023-11-19T16:52:20;15.40;;;3.00;;
50585;SDS011;36542;51.700;8.846;2023-11-19T16:54:46;8.27;;;3.13;;
50585;SDS011;36542;51.700;8.846;2023-11-19T16:57:14;11.03;;;2.53;;
50585;SDS011;36542;51.700;8.846;2023-11-19T16:59:48;15.83;;;3.93;;
50585;SDS011;36542;51.700;8.846;2023-11-19T17:02:21;12.10;;;3.27;;
50585;SDS011;36542;51.700;8.846;2023-11-19T17:04:58;8.70;;;3.23;;
50585;SDS011;36542;51.700;8.846;2023-11-19T17:07:27;7.03;;;2.57;;
50585;SDS011;36542;51.700;8.846;2023-11-19T17:10:02;12.10;;;2.73;;
50585;SDS011;36542;51.700;8.846;2023-11-19T17:13:07;9.57;;;2.83;;
50585;SDS011;36542;51.700;8.846;2023-11-19T17:16:07;9.03;;;2.17;;
50585;SDS011;36542;51.700;8.846;2023-11-19T17:18:53;14.50;;;2.97;;
50585;SDS011;36542;51.700;8.846;2023-11-19T17:24:42;12.83;;;2.60;;
50585;SDS011;36542;51.700;8.846;2023-11-19T17:27:26;6.33;;;2.73;;
50585;SDS011;36542;51.700;8.846;2023-11-19T17:29:55;12.90;;;2.90;;
50585;SDS011;36542;51.700;8.846;2023-11-19T17:33:12;12.87;;;3.27;;
50585;SDS011;36542;51.700;8.846;2023-11-19T17:36:32;9.40;;;3.13;;
50585;SDS011;36542;51.700;8.846;2023-11-19T17:38:58;9.27;;;2.73;;
50585;SDS011;36542;51.700;8.846;2023-11-19T17:41:27;11.20;;;2.57;;
50585;SDS011;36542;51.700;8.846;2023-11-19T17:43:53;14.43;;;3.60;;
50585;SDS011;36542;51.700;8.846;2023-11-19T17:46:19;9.10;;;2.90;;
50585;SDS011;36542;51.700;8.846;2023-11-19T17:48:47;14.90;;;3.47;;
50585;SDS011;36542;51.700;8.846;2023-11-19T17:51:12;14.90;;;3.13;;
50585;SDS011;36542;51.700;8.846;2023-11-19T17:53:42;12.50;;;3.87;;
50585;SDS011;36542;51.700;8.846;2023-11-19T17:56:19;12.83;;;3.17;;
50585;SDS011;36542;51.700;8.846;2023-11-19T17:58:44;17.90;;;3.10;;
50585;SDS011;36542;51.700;8.846;2023-11-19T18:01:20;16.67;;;3.83;;
50585;SDS011;36542;51.700;8.846;2023-11-19T18:03:46;15.60;;;3.13;;
50585;SDS011;36542;51.700;8.846;2023-11-19T18:06:20;11.93;;;3.80;;
50585;SDS011;36542;51.700;8.846;2023-11-19T18:08:46;15.27;;;3.27;;
50585;SDS011;36542;51.700;8.846;2023-11-19T18:11:16;15.57;;;4.23;;
50585;SDS011;36542;51.700;8.846;2023-11-19T18:13:48;20.23;;;4.03;;
50585;SDS011;36542;51.700;8.846;2023-11-19T18:25:22;18.97;;;4.37;;
50585;SDS011;36542;51.700;8.846;2023-11-19T18:28:05;13.43;;;3.70;;
50585;SDS011;36542;51.700;8.846;2023-11-19T18:30:33;13.43;;;3.40;;
50585;SDS011;36542;51.700;8.846;2023-11-19T18:32:59;12.63;;;4.10;;
50585;SDS011;36542;51.700;8.846;2023-11-19T18:36:03;15.03;;;4.17;;
50585;SDS011;36542;51.700;8.846;2023-11-19T18:38:58;11.63;;;3.97;;
50585;SDS011;36542;51.700;8.846;2023-11-19T18:41:24;18.83;;;5.40;;
50585;SDS011;36542;51.700;8.846;2023-11-19T18:44:21;27.50;;;9.53;;
50585;SDS011;36542;51.700;8.846;2023-11-19T18:46:57;22.77;;;9.93;;
50585;SDS011;36542;51.700;8.846;2023-11-19T18:49:33;14.07;;;6.60;;
50585;SDS011;36542;51.700;8.846;2023-11-19T18:52:01;19.20;;;6.33;;
50585;SDS011;36542;51.700;8.846;2023-11-19T18:54:38;28.90;;;11.33;;
50585;SDS011;36542;51.700;8.846;2023-11-19T19:00:57;17.77;;;5.47;;
50585;SDS011;36542;51.700;8.846;2023-11-19T19:03:25;16.60;;;5.37;;
50585;SDS011;36542;51.700;8.846;2023-11-19T19:06:20;19.37;;;5.50;;
50585;SDS011;36542;51.700;8.846;2023-11-19T19:08:46;18.53;;;6.40;;
50585;SDS011;36542;51.700;8.846;2023-11-19T19:11:14;19.63;;;6.90;;
50585;SDS011;36542;51.700;8.846;2023-11-19T19:13:43;15.27;;;5.93;;
50585;SDS011;36542;51.700;8.846;2023-11-19T19:16:09;23.17;;;7.17;;
50585;SDS011;36542;51.700;8.846;2023-11-19T19:18:35;17.43;;;6.07;;
50585;SDS011;36542;51.700;8.846;2023-11-19T19:21:02;16.33;;;6.33;;
50585;SDS011;36542;51.700;8.846;2023-11-19T19:23:28;20.47;;;6.33;;
50585;SDS011;36542;51.700;8.846;2023-11-19T19:25:53;18.30;;;6.00;;
50585;SDS011;36542;51.700;8.846;2023-11-19T19:28:19;13.63;;;6.07;;
50585;SDS011;36542;51.700;8.846;2023-11-19T19:30:44;24.03;;;5.97;;
50585;SDS011;36542;51.700;8.846;2023-11-19T19:33:10;17.67;;;5.50;;
50585;SDS011;36542;51.700;8.846;2023-11-19T19:35:36;19.73;;;7.47;;
50585;SDS011;36542;51.700;8.846;2023-11-19T19:38:02;20.07;;;6.23;;
50585;SDS011;36542;51.700;8.846;2023-11-19T19:40:28;18.00;;;6.13;;
50585;SDS011;36542;51.700;8.846;2023-11-19T19:42:53;21.90;;;6.20;;
50585;SDS011;36542;51.700;8.846;2023-11-19T19:45:20;20.17;;;6.30;;
50585;SDS011;36542;51.700;8.846;2023-11-19T19:47:45;20.77;;;5.33;;
50585;SDS011;36542;51.700;8.846;2023-11-19T19:50:11;25.80;;;6.40;;
50585;SDS011;36542;51.700;8.846;2023-11-19T19:52:37;22.90;;;7.53;;
50585;SDS011;36542;51.700;8.846;2023-11-19T19:55:04;24.77;;;7.00;;
50585;SDS011;36542;51.700;8.846;2023-11-19T19:57:31;20.30;;;6.67;;
50585;SDS011;36542;51.700;8.846;2023-11-19T19:59:58;21.97;;;6.47;;
50585;SDS011;36542;51.700;8.846;2023-11-19T20:02:31;17.70;;;6.03;;
50585;SDS011;36542;51.700;8.846;2023-11-19T20:04:57;19.20;;;6.77;;
50585;SDS011;36542;51.700;8.846;2023-11-19T20:07:22;19.87;;;7.40;;
50585;SDS011;36542;51.700;8.846;2023-11-19T20:09:48;19.60;;;6.20;;
50585;SDS011;36542;51.700;8.846;2023-11-19T20:12:14;25.10;;;6.13;;
50585;SDS011;36542;51.700;8.846;2023-11-19T20:14:41;17.03;;;6.40;;
50585;SDS011;36542;51.700;8.846;2023-11-19T20:17:07;16.33;;;6.53;;
50585;SDS011;36542;51.700;8.846;2023-11-19T20:19:36;15.07;;;5.60;;
50585;SDS011;36542;51.700;8.846;2023-11-19T20:22:02;16.03;;;5.07;;
50585;SDS011;36542;51.700;8.846;2023-11-19T20:24:28;14.63;;;5.63;;
50585;SDS011;36542;51.700;8.846;2023-11-19T20:26:54;14.23;;;4.73;;
50585;SDS011;36542;51.700;8.846;2023-11-19T20:29:19;16.27;;;5.00;;
50585;SDS011;36542;51.700;8.846;2023-11-19T20:31:45;14.53;;;4.53;;
50585;SDS011;36542;51.700;8.846;2023-11-19T20:34:10;12.80;;;4.30;;
50585;SDS011;36542;51.700;8.846;2023-11-19T20:36:36;9.60;;;5.23;;
50585;SDS011;36542;51.700;8.846;2023-11-19T20:39:02;10.93;;;3.97;;
50585;SDS011;36542;51.700;8.846;2023-11-19T20:41:27;11.27;;;3.60;;